createdAt,value
2022-09-07T00:01:19.765Z,85.89
2022-09-07T00:03:47.273Z,85.77
2022-09-07T00:06:15.306Z,85.98
2022-09-07T00:08:44.522Z,85.76
2022-09-07T00:11:15.084Z,85.65
2022-09-07T00:13:47.098Z,85.92
2022-09-07T00:16:29.774Z,85.83
2022-09-07T00:19:03.180Z,85.99
2022-09-07T00:21:30.734Z,86.05
2022-09-07T00:24:00.520Z,86.02
2022-09-07T00:26:30.861Z,85.92
2022-09-07T00:29:00.869Z,86.01
2022-09-07T00:31:29.484Z,85.82
2022-09-07T00:34:01.798Z,86.10
2022-09-07T00:36:30.192Z,86.18
2022-09-07T00:38:58.422Z,86.21
2022-09-07T00:41:26.052Z,86.76
2022-09-07T00:43:57.695Z,86.87
2022-09-07T00:46:28.351Z,87.27
2022-09-07T00:49:09.935Z,87.32
2022-09-07T00:51:43.465Z,87.08
2022-09-07T00:54:17.257Z,87.25
2022-09-07T00:56:47.289Z,87.74
2022-09-07T00:59:21.110Z,88.18
2022-09-07T01:01:48.964Z,87.61
2022-09-07T01:04:17.222Z,88.48
2022-09-07T01:06:44.760Z,88.89
2022-09-07T01:09:17.978Z,88.47
2022-09-07T01:11:50.829Z,88.79
2022-09-07T01:14:23.993Z,89.00
2022-09-07T01:17:13.510Z,89.08
2022-09-07T01:20:13.867Z,89.33
2022-09-07T01:23:07.265Z,89.51
2022-09-07T01:25:51.651Z,89.62
2022-09-07T01:28:30.262Z,89.95
2022-09-07T01:31:00.362Z,90.26
2022-09-07T01:34:24.706Z,90.39
2022-09-07T01:37:13.667Z,91.03
2022-09-07T01:40:01.836Z,90.81
2022-09-07T01:42:39.692Z,91.49
2022-09-07T01:45:13.014Z,90.99
2022-09-07T01:47:56.969Z,90.90
2022-09-07T01:50:58.256Z,91.23
2022-09-07T01:53:51.359Z,91.56
2022-09-07T01:56:31.105Z,91.32
2022-09-07T01:59:27.891Z,90.97
2022-09-07T02:02:15.369Z,90.84
2022-09-07T02:04:49.487Z,90.76
2022-09-07T02:07:41.068Z,91.19
2022-09-07T02:10:15.445Z,90.85
2022-09-07T02:12:55.961Z,90.55
2022-09-07T02:15:33.722Z,90.53
2022-09-07T02:18:05.832Z,90.34
2022-09-07T02:20:38.637Z,90.55
2022-09-07T02:23:14.372Z,90.60
2022-09-07T02:25:47.221Z,90.29
2022-09-07T02:28:19.278Z,90.28
2022-09-07T02:30:46.914Z,90.17
2022-09-07T02:33:18.345Z,90.20
2022-09-07T02:35:46.657Z,90.31
2022-09-07T02:38:14.195Z,90.15
2022-09-07T02:40:41.758Z,90.36
2022-09-07T02:43:12.548Z,90.27
2022-09-07T02:46:15.805Z,90.20
2022-09-07T02:49:14.502Z,90.45
2022-09-07T02:51:44.835Z,90.38
2022-09-07T02:54:22.112Z,90.04
2022-09-07T02:56:52.914Z,90.04
2022-09-07T02:59:41.439Z,90.50
2022-09-07T03:02:28.971Z,90.41
2022-09-07T03:05:19.097Z,90.32
2022-09-07T03:08:04.226Z,90.53
2022-09-07T03:10:35.199Z,90.38
2022-09-07T03:13:02.738Z,90.67
2022-09-07T03:15:30.439Z,90.48
2022-09-07T03:17:58.003Z,90.19
2022-09-07T03:20:27.827Z,90.22
2022-09-07T03:22:55.358Z,89.90
2022-09-07T03:25:23.266Z,89.93
2022-09-07T03:27:53.338Z,89.95
2022-09-07T03:30:23.096Z,89.67
2022-09-07T03:32:50.720Z,89.89
2022-09-07T03:35:20.605Z,89.94
2022-09-07T03:37:50.423Z,89.96
2022-09-07T03:40:20.247Z,89.71
2022-09-07T03:42:53.327Z,89.69
2022-09-07T03:45:20.973Z,89.86
2022-09-07T03:47:51.189Z,90.02
2022-09-07T03:50:18.816Z,89.90
2022-09-07T03:52:46.307Z,89.93
2022-09-07T03:55:14.039Z,89.96
2022-09-07T03:57:43.559Z,89.80
2022-09-07T04:00:11.918Z,89.76
2022-09-07T04:02:41.058Z,89.58
2022-09-07T04:05:09.063Z,89.64
2022-09-07T04:07:37.806Z,89.36
2022-09-07T04:10:05.465Z,89.10
2022-09-07T04:12:35.498Z,89.03
2022-09-07T04:15:03.114Z,89.06
2022-09-07T04:17:33.011Z,88.59
2022-09-07T04:20:00.539Z,88.79
2022-09-07T04:22:28.082Z,88.46
2022-09-07T04:24:55.625Z,88.45
2022-09-07T04:27:23.201Z,88.08
2022-09-07T04:29:53.191Z,87.96
2022-09-07T04:32:20.730Z,88.25
2022-09-07T04:34:48.833Z,87.93
2022-09-07T04:37:16.385Z,87.72
2022-09-07T04:39:43.934Z,87.54
2022-09-07T04:42:11.529Z,87.42
2022-09-07T04:44:39.081Z,87.54
2022-09-07T04:47:07.463Z,87.20
2022-09-07T04:49:37.628Z,86.93
2022-09-07T04:52:06.396Z,86.49
2022-09-07T04:54:34.190Z,86.33
2022-09-07T04:57:04.286Z,86.21
2022-09-07T04:59:31.819Z,85.82
2022-09-07T05:01:59.559Z,85.93
2022-09-07T05:04:29.655Z,85.78
2022-09-07T05:06:57.551Z,85.20
2022-09-07T05:09:25.077Z,84.77
2022-09-07T05:11:52.618Z,84.71
2022-09-07T05:14:20.270Z,83.97
2022-09-07T05:16:50.159Z,83.78
2022-09-07T05:19:17.791Z,83.23
2022-09-07T05:21:47.541Z,83.14
2022-09-07T05:24:15.065Z,82.84
2022-09-07T05:26:43.190Z,82.40
2022-09-07T05:32:00.947Z,80.92
2022-09-07T05:37:01.987Z,80.51
2022-09-07T05:39:30.068Z,80.08
2022-09-07T05:41:57.836Z,80.26
2022-09-07T05:47:10.832Z,79.55
2022-09-07T05:49:38.427Z,79.23
2022-09-07T05:52:06.137Z,78.54
2022-09-07T05:54:33.669Z,78.66
2022-09-07T05:57:03.707Z,78.06
2022-09-07T05:59:31.408Z,77.46
2022-09-07T06:01:59.055Z,77.05
2022-09-07T06:04:27.397Z,76.66
2022-09-07T06:12:30.560Z,75.69
2022-09-07T06:14:58.354Z,74.45
2022-09-07T06:17:25.943Z,74.32
2022-09-07T06:19:54.800Z,72.85
2022-09-07T06:22:22.480Z,71.14
2022-09-07T06:24:50.079Z,67.57
2022-09-07T06:27:17.668Z,66.67
2022-09-07T06:29:45.216Z,65.26
2022-09-07T06:35:00.227Z,64.72
2022-09-07T06:37:27.780Z,65.57
2022-09-07T06:39:55.390Z,67.74
2022-09-07T06:42:22.993Z,65.99
2022-09-07T06:44:53.011Z,67.71
2022-09-07T06:47:20.540Z,67.90
2022-09-07T06:49:48.163Z,66.79
2022-09-07T06:52:18.167Z,66.72
2022-09-07T06:55:01.485Z,66.88
2022-09-07T06:57:29.230Z,66.36
2022-09-07T06:59:58.397Z,65.81
2022-09-07T07:02:25.937Z,65.62
2022-09-07T07:04:53.594Z,65.90
2022-09-07T07:07:21.125Z,65.63
2022-09-07T07:09:51.356Z,65.93
2022-09-07T07:14:45.421Z,66.20
2022-09-07T07:17:13.301Z,65.81
2022-09-07T07:19:40.889Z,65.52
2022-09-07T07:22:45.664Z,64.25
2022-09-07T07:24:56.941Z,63.06
2022-09-07T07:27:24.690Z,63.18
2022-09-07T07:29:52.674Z,62.01
2022-09-07T07:32:20.462Z,60.32
2022-09-07T07:34:48.340Z,58.85
2022-09-07T07:37:16.651Z,58.35
2022-09-07T07:42:35.665Z,55.37
2022-09-07T07:47:53.433Z,56.39
2022-09-07T07:50:36.267Z,53.71
2022-09-07T07:55:52.920Z,51.64
2022-09-07T07:58:20.868Z,50.38
2022-09-07T08:00:54.646Z,49.46
2022-09-07T08:03:24.755Z,48.57
2022-09-07T08:05:53.135Z,46.61
2022-09-07T08:08:21.333Z,43.89
2022-09-07T08:10:48.851Z,45.84
2022-09-07T08:13:19.456Z,43.46
2022-09-07T08:15:47.269Z,43.47
2022-09-07T08:18:16.570Z,40.60
2022-09-07T08:20:44.507Z,42.69
2022-09-07T08:23:12.191Z,41.37
2022-09-07T08:25:39.822Z,41.08
2022-09-07T08:28:07.716Z,40.91
2022-09-07T08:30:35.298Z,39.71
2022-09-07T08:33:02.797Z,38.69
2022-09-07T08:35:30.326Z,37.91
2022-09-07T08:37:57.830Z,38.71
2022-09-07T08:40:27.814Z,37.37
2022-09-07T08:43:32.575Z,36.15
2022-09-07T08:46:23.662Z,35.09
2022-09-07T08:48:51.277Z,35.88
2022-09-07T08:51:25.559Z,36.59
2022-09-07T08:53:53.399Z,35.46
2022-09-07T08:56:33.832Z,34.68
2022-09-07T08:59:16.240Z,34.08
2022-09-07T09:02:26.952Z,33.26
2022-09-07T09:04:32.854Z,33.04
2022-09-07T09:07:09.830Z,34.24
2022-09-07T09:10:08.461Z,35.23
2022-09-07T09:12:55.138Z,33.88
2022-09-07T09:16:01.612Z,32.91
2022-09-07T09:18:54.894Z,31.89
2022-09-07T09:21:22.417Z,32.28
2022-09-07T09:23:54.335Z,33.21
2022-09-07T09:26:26.874Z,32.26
2022-09-07T09:28:57.465Z,32.69
2022-09-07T09:31:32.939Z,31.92
2022-09-07T09:34:06.624Z,31.43
2022-09-07T09:36:36.771Z,32.61
2022-09-07T09:39:22.869Z,32.85
2022-09-07T09:41:50.517Z,31.97
2022-09-07T09:44:22.635Z,31.97
2022-09-07T09:49:42.909Z,31.16
2022-09-07T09:52:44.927Z,31.38
2022-09-07T09:55:34.397Z,31.76
2022-09-07T10:03:56.676Z,32.10
2022-09-07T10:06:26.033Z,33.11
2022-09-07T10:08:58.396Z,33.22
2022-09-07T10:14:37.471Z,32.31
2022-09-07T10:17:28.858Z,33.00
2022-09-07T10:20:23.261Z,32.70
2022-09-07T10:22:53.717Z,32.54
2022-09-07T10:25:49.775Z,32.96
2022-09-07T10:29:06.576Z,32.07
2022-09-07T10:31:31.640Z,33.38
2022-09-07T10:34:26.265Z,32.67
2022-09-07T10:36:59.683Z,33.61
2022-09-07T10:39:32.771Z,33.62
2022-09-07T10:42:11.354Z,32.15
2022-09-07T10:45:25.004Z,31.51
2022-09-07T10:48:37.880Z,31.92
2022-09-07T10:51:14.463Z,32.10
2022-09-07T10:57:17.449Z,31.79
2022-09-07T11:00:09.149Z,31.26
2022-09-07T11:03:30.127Z,31.97
2022-09-07T11:06:13.957Z,31.12
2022-09-07T11:12:02.044Z,30.89
2022-09-07T11:14:37.634Z,31.00
2022-09-07T11:17:15.035Z,31.95
2022-09-07T11:19:45.034Z,32.14
2022-09-07T11:22:33.787Z,32.05
2022-09-07T11:25:33.789Z,31.77
2022-09-07T11:28:27.561Z,31.67
2022-09-07T11:31:00.755Z,32.04
2022-09-07T11:37:01.174Z,32.94
2022-09-07T11:39:52.462Z,32.55
2022-09-07T11:42:48.278Z,32.50
2022-09-07T11:45:41.952Z,32.44
2022-09-07T11:48:51.619Z,32.73
2022-09-07T11:51:24.855Z,32.09
2022-09-07T11:54:02.081Z,34.03
2022-09-07T11:56:37.113Z,33.61
2022-09-07T11:59:19.541Z,33.57
2022-09-07T12:02:17.111Z,34.75
2022-09-07T12:04:56.329Z,34.33
2022-09-07T12:07:56.795Z,33.15
2022-09-07T12:10:55.069Z,34.24
2022-09-07T12:13:38.109Z,34.86
2022-09-07T12:16:17.060Z,34.18
2022-09-07T12:19:02.576Z,35.54
2022-09-07T12:21:42.154Z,34.98
2022-09-07T12:24:37.383Z,34.39
2022-09-07T12:27:12.487Z,34.54
2022-09-07T12:29:45.078Z,35.29
2022-09-07T12:35:03.645Z,36.03
2022-09-07T12:37:39.496Z,38.08
2022-09-07T12:40:30.930Z,38.50
2022-09-07T12:43:13.532Z,38.75
2022-09-07T12:45:41.586Z,37.40
2022-09-07T12:48:14.976Z,37.14
2022-09-07T12:50:42.558Z,36.13
2022-09-07T12:53:29.224Z,37.99
2022-09-07T12:56:16.684Z,37.54
2022-09-07T12:58:59.861Z,37.67
2022-09-07T13:01:35.021Z,38.96
2022-09-07T13:04:33.134Z,38.98
2022-09-07T13:07:16.642Z,38.96
2022-09-07T13:09:56.257Z,38.49
2022-09-07T13:15:51.331Z,37.60
2022-09-07T13:18:30.311Z,39.13
2022-09-07T13:21:18.438Z,38.97
2022-09-07T13:27:09.606Z,40.82
2022-09-07T13:29:59.823Z,41.33
2022-09-07T13:35:30.510Z,41.29
2022-09-07T13:38:02.302Z,41.90
2022-09-07T13:40:34.440Z,43.33
2022-09-07T13:43:04.268Z,43.14
2022-09-07T13:45:48.514Z,43.09
2022-09-07T13:48:26.347Z,43.05
2022-09-07T13:51:05.227Z,42.94
2022-09-07T13:53:53.862Z,42.83
2022-09-07T13:56:47.961Z,43.07
2022-09-07T13:59:22.145Z,42.53
2022-09-07T14:01:51.503Z,42.26
2022-09-07T14:04:30.293Z,42.20
2022-09-07T14:07:15.721Z,41.18
2022-09-07T14:09:43.358Z,41.20
2022-09-07T14:12:22.112Z,40.92
2022-09-07T14:15:23.639Z,40.70
2022-09-07T14:18:03.228Z,41.12
2022-09-07T14:20:32.388Z,41.84
2022-09-07T14:23:00.356Z,41.69
2022-09-07T14:25:30.381Z,41.69
2022-09-07T14:28:02.389Z,41.82
2022-09-07T14:30:33.523Z,41.87
2022-09-07T14:33:07.558Z,41.81
2022-09-07T14:35:38.780Z,42.00
2022-09-07T14:41:19.507Z,41.98
2022-09-07T14:43:58.341Z,42.02
2022-09-07T14:46:29.997Z,42.11
2022-09-07T14:49:00.515Z,42.46
2022-09-07T14:51:36.503Z,42.77
2022-09-07T14:54:08.970Z,43.24
2022-09-07T14:56:40.279Z,43.73
2022-09-07T14:59:29.526Z,43.96
2022-09-07T15:02:23.963Z,44.20
2022-09-07T15:05:25.440Z,44.34
2022-09-07T15:07:54.339Z,44.11
2022-09-07T15:10:22.476Z,43.83
2022-09-07T15:12:58.367Z,44.07
2022-09-07T15:15:32.965Z,43.97
2022-09-07T15:18:07.743Z,44.16
2022-09-07T15:20:45.093Z,44.26
2022-09-07T15:23:20.203Z,44.78
2022-09-07T15:25:54.038Z,44.57
2022-09-07T15:34:15.803Z,44.48
2022-09-07T15:36:47.520Z,45.15
2022-09-07T15:39:21.723Z,44.71
2022-09-07T15:41:51.405Z,44.94
2022-09-07T15:44:25.190Z,45.32
2022-09-07T15:49:47.741Z,45.42
2022-09-07T15:52:17.325Z,46.12
2022-09-07T15:54:46.986Z,46.77
2022-09-07T16:00:02.526Z,47.69
2022-09-07T16:05:23.121Z,47.19
2022-09-07T16:10:38.555Z,47.71
2022-09-07T16:13:16.821Z,48.33
2022-09-07T16:15:46.219Z,47.73
2022-09-07T16:18:18.772Z,47.91
2022-09-07T16:20:47.325Z,48.43
2022-09-07T16:23:17.209Z,48.56
2022-09-07T16:25:58.021Z,48.74
2022-09-07T16:28:26.954Z,49.20
2022-09-07T16:30:54.674Z,48.78
2022-09-07T16:33:25.217Z,48.93
2022-09-07T16:36:00.977Z,49.11
2022-09-07T16:38:46.130Z,49.82
2022-09-07T16:41:17.814Z,50.98
2022-09-07T16:43:46.102Z,51.74
2022-09-07T16:46:16.544Z,52.08
2022-09-07T16:48:46.591Z,52.89
2022-09-07T16:51:16.397Z,54.07
2022-09-07T16:53:44.274Z,54.17
2022-09-07T16:56:14.939Z,54.64
2022-09-07T16:58:47.040Z,55.79
2022-09-07T17:01:17.786Z,57.21
2022-09-07T17:03:46.118Z,58.82
2022-09-07T17:06:16.538Z,59.38
2022-09-07T17:08:44.586Z,60.10
2022-09-07T17:11:14.672Z,60.69
2022-09-07T17:13:43.729Z,61.05
2022-09-07T17:16:16.422Z,61.40
2022-09-07T17:21:34.164Z,62.13
2022-09-07T17:24:04.606Z,62.04
2022-09-07T17:26:33.176Z,62.72
2022-09-07T17:29:01.607Z,62.50
2022-09-07T17:34:20.597Z,63.56
2022-09-07T17:36:48.883Z,64.22
2022-09-07T17:39:18.567Z,64.17
2022-09-07T17:41:47.762Z,64.66
2022-09-07T17:44:15.812Z,64.75
2022-09-07T17:46:43.588Z,64.95
2022-09-07T17:49:13.997Z,65.49
2022-09-07T17:51:43.216Z,65.63
2022-09-07T17:54:14.733Z,65.90
2022-09-07T17:56:45.130Z,66.00
2022-09-07T18:02:01.732Z,66.26
2022-09-07T18:04:31.876Z,66.32
2022-09-07T18:06:59.474Z,66.03
2022-09-07T18:09:27.021Z,66.51
2022-09-07T18:11:54.558Z,66.83
2022-09-07T18:14:22.216Z,67.11
2022-09-07T18:16:51.258Z,67.00
2022-09-07T18:19:19.860Z,66.70
2022-09-07T18:21:48.712Z,66.89
2022-09-07T18:24:21.402Z,67.00
2022-09-07T18:26:53.599Z,66.93
2022-09-07T18:29:33.635Z,67.70
2022-09-07T18:32:05.584Z,67.70
2022-09-07T18:34:35.334Z,67.68
2022-09-07T18:37:02.975Z,67.68
2022-09-07T18:39:31.174Z,67.79
2022-09-07T18:41:58.691Z,67.80
2022-09-07T18:47:21.699Z,68.02
2022-09-07T18:49:52.230Z,68.53
2022-09-07T18:55:10.095Z,68.67
2022-09-07T18:57:38.247Z,68.93
2022-09-07T19:00:10.805Z,69.76
2022-09-07T19:02:38.413Z,69.93
2022-09-07T19:07:56.701Z,70.01
2022-09-07T19:10:24.301Z,69.94
2022-09-07T19:12:51.809Z,69.88
2022-09-07T19:15:21.436Z,69.97
2022-09-07T19:17:51.343Z,70.77
2022-09-07T19:20:19.031Z,70.72
2022-09-07T19:22:47.596Z,70.64
2022-09-07T19:25:15.124Z,70.58
2022-09-07T19:27:42.594Z,70.59
2022-09-07T19:30:12.927Z,70.56
2022-09-07T19:32:42.912Z,70.08
2022-09-07T19:35:10.876Z,70.35
2022-09-07T19:37:38.388Z,70.28
2022-09-07T19:40:12.702Z,70.36
2022-09-07T19:42:43.430Z,70.47
2022-09-07T19:45:11.275Z,69.61
2022-09-07T19:47:38.778Z,69.15
2022-09-07T19:50:09.343Z,69.10
2022-09-07T19:52:38.908Z,69.30
2022-09-07T19:55:08.212Z,69.05
2022-09-07T19:57:36.174Z,68.71
2022-09-07T20:00:05.834Z,68.58
2022-09-07T20:02:34.718Z,68.71
2022-09-07T20:05:02.200Z,69.07
2022-09-07T20:07:29.686Z,69.10
2022-09-07T20:09:57.170Z,69.22
2022-09-07T20:12:24.672Z,69.37
2022-09-07T20:14:52.239Z,69.88
2022-09-07T20:17:19.747Z,69.86
2022-09-07T20:19:47.245Z,70.26
2022-09-07T20:22:14.751Z,70.25
2022-09-07T20:24:44.798Z,70.40
2022-09-07T20:27:12.275Z,70.83
2022-09-07T20:29:40.844Z,71.40
2022-09-07T20:32:08.722Z,71.94
2022-09-07T20:34:36.789Z,72.49
2022-09-07T20:37:06.395Z,72.89
2022-09-07T20:39:38.859Z,73.14
2022-09-07T20:42:07.738Z,73.44
2022-09-07T20:44:35.221Z,73.63
2022-09-07T20:47:05.208Z,74.19
2022-09-07T20:49:37.651Z,73.86
2022-09-07T20:52:05.169Z,73.86
2022-09-07T20:54:34.088Z,73.79
2022-09-07T20:57:03.991Z,73.71
2022-09-07T20:59:31.751Z,73.66
2022-09-07T21:02:00.635Z,74.21
2022-09-07T21:04:30.313Z,74.53
2022-09-07T21:06:57.817Z,74.13
2022-09-07T21:09:25.533Z,74.57
2022-09-07T21:11:56.751Z,75.21
2022-09-07T21:14:24.927Z,75.63
2022-09-07T21:16:52.417Z,75.50
2022-09-07T21:19:19.918Z,75.78
2022-09-07T21:21:49.660Z,75.61
2022-09-07T21:24:20.184Z,75.59
2022-09-07T21:26:48.961Z,75.69
2022-09-07T21:29:24.152Z,75.72
2022-09-07T21:31:55.516Z,75.82
2022-09-07T21:34:24.068Z,76.23
2022-09-07T21:36:52.371Z,76.27
2022-09-07T21:39:20.802Z,76.29
2022-09-07T21:41:50.514Z,76.67
2022-09-07T21:44:18.154Z,76.40
2022-09-07T21:46:46.024Z,77.15
2022-09-07T21:49:13.789Z,76.71
2022-09-07T21:51:41.299Z,76.50
2022-09-07T21:54:11.032Z,76.60
2022-09-07T21:56:41.997Z,76.54
2022-09-07T21:59:14.205Z,76.64
2022-09-07T22:01:43.871Z,76.66
2022-09-07T22:04:14.733Z,76.76
2022-09-07T22:06:44.178Z,76.94
2022-09-07T22:09:14.026Z,76.87
2022-09-07T22:11:45.735Z,76.69
2022-09-07T22:14:15.694Z,76.72
2022-09-07T22:16:45.778Z,76.86
2022-09-07T22:19:13.268Z,76.98
2022-09-07T22:21:40.768Z,77.42
2022-09-07T22:24:08.467Z,77.34
2022-09-07T22:26:38.370Z,76.95
2022-09-07T22:29:11.486Z,77.42
2022-09-07T22:31:39.984Z,77.50
2022-09-07T22:34:09.320Z,77.32
2022-09-07T22:36:40.315Z,77.34
2022-09-07T22:39:11.203Z,77.14
2022-09-07T22:41:40.079Z,76.89
2022-09-07T22:44:11.146Z,77.18
2022-09-07T22:49:09.973Z,77.00
2022-09-07T22:51:37.476Z,76.76
2022-09-07T22:54:07.950Z,76.56
2022-09-07T22:56:35.886Z,76.36
2022-09-07T22:59:07.402Z,76.25
2022-09-07T23:01:37.957Z,76.56
2022-09-07T23:04:06.517Z,76.34
2022-09-07T23:06:39.464Z,76.46
2022-09-07T23:09:12.355Z,76.49
2022-09-07T23:11:40.862Z,76.86
2022-09-07T23:14:13.867Z,77.00
2022-09-07T23:16:41.419Z,77.15
2022-09-07T23:19:10.624Z,77.55
2022-09-07T23:21:38.869Z,78.05
2022-09-07T23:24:07.049Z,78.07
2022-09-07T23:26:34.662Z,78.49
2022-09-07T23:29:06.394Z,79.12
2022-09-07T23:31:36.936Z,79.21
2022-09-07T23:34:05.239Z,79.16
2022-09-07T23:36:33.162Z,79.63
2022-09-07T23:39:03.180Z,79.24
2022-09-07T23:41:30.718Z,79.47
2022-09-07T23:44:00.731Z,79.81
2022-09-07T23:46:28.371Z,80.00
2022-09-07T23:48:55.922Z,79.91
2022-09-07T23:51:25.808Z,79.87
2022-09-07T23:53:54.091Z,79.78
2022-09-07T23:56:24.218Z,79.78
2022-09-07T23:58:52.000Z,79.81
